Terminal Aerodrome Forecast
Issued by NWS

Home | Current Version | Previous Version | Text Only | Print | Product List | Glossary On
Versions: 1 2 3 4 5 6 7 8 9 10 11 12
244
FTUS46 KSTO 251735
TAFRBL
TAF
KRBL 251735Z 2518/2618 VRB04KT P6SM SKC
     FM252100 16009KT P6SM SKC
     FM260600 32006KT P6SM SKC=

USA.gov is the U.S. government's official web portal to all federal, state and local government web resources and services.